Time;durP1;ratioP1;P1;durP2;ratioP2;P2;SDS_P1;SDS_P2;PMS_P1;PMS_P2;Temp;Humidity;BMP_temperature;BMP_pressure;BME280_temperature;BME280_humidity;BME280_pressure;Samples;Min_cycle;Max_cycle;Signal;HPM_P1;HPM_P2
2021/05/03 00:01:40;;;;;;;13.27;8.00;;;22.70;47.00;;;;;;5033843;28;20509;-87
2021/05/03 00:04:08;;;;;;;14.00;8.27;;;22.70;46.80;;;;;;5033987;28;20422;-87
2021/05/03 00:06:36;;;;;;;18.93;8.70;;;22.70;47.00;;;;;;5033334;28;20435;-87
2021/05/03 00:09:05;;;;;;;14.17;8.80;;;22.70;46.90;;;;;;5033486;28;20432;-87
2021/05/03 00:11:32;;;;;;;15.57;8.33;;;22.70;46.70;;;;;;5033343;28;20450;-86
2021/05/03 00:13:58;;;;;;;13.07;7.67;;;22.70;46.80;;;;;;5033787;28;20448;-86
2021/05/03 00:16:26;;;;;;;13.67;8.70;;;22.70;47.40;;;;;;5032133;28;20415;-86
2021/05/03 00:18:57;;;;;;;15.23;8.13;;;22.70;46.90;;;;;;5031068;28;20498;-85
2021/05/03 00:21:23;;;;;;;13.40;7.47;;;22.60;46.70;;;;;;5030368;28;20446;-85
2021/05/03 00:23:49;;;;;;;12.30;8.10;;;22.60;46.80;;;;;;5030620;28;20430;-85
2021/05/03 00:26:16;;;;;;;19.10;8.20;;;22.60;47.00;;;;;;5030279;28;20180;-86
2021/05/03 00:28:42;;;;;;;12.57;6.97;;;22.60;46.70;;;;;;5030857;28;20434;-85
2021/05/03 00:31:09;;;;;;;15.60;7.80;;;22.60;47.00;;;;;;5014223;28;20458;-85
2021/05/03 00:33:35;;;;;;;12.53;7.87;;;22.60;46.70;;;;;;5030543;28;20426;-85
2021/05/03 00:36:04;;;;;;;14.10;7.90;;;22.60;47.20;;;;;;5048928;28;20478;-85
2021/05/03 00:38:31;;;;;;;19.10;10.00;;;22.70;46.90;;;;;;5030550;28;20415;-85
2021/05/03 00:40:58;;;;;;;15.60;8.00;;;22.60;47.10;;;;;;5014397;28;20423;-84
2021/05/03 00:43:24;;;;;;;12.87;7.30;;;22.60;46.80;;;;;;5030146;28;20451;-84
2021/05/03 00:45:51;;;;;;;11.03;7.37;;;22.60;46.90;;;;;;5013784;28;20422;-85
2021/05/03 00:48:17;;;;;;;13.97;8.07;;;22.70;47.00;;;;;;5014190;28;20442;-85
2021/05/03 00:50:48;;;;;;;12.73;7.40;;;22.60;47.00;;;;;;5047982;28;20480;-85
2021/05/03 00:53:18;;;;;;;14.90;8.63;;;22.60;46.80;;;;;;5048534;28;20482;-85
2021/05/03 00:55:44;;;;;;;14.30;7.63;;;22.60;46.90;;;;;;5031151;28;20429;-85
2021/05/03 00:58:14;;;;;;;13.20;7.77;;;22.60;46.90;;;;;;5048136;28;20418;-85
2021/05/03 01:00:40;;;;;;;16.10;7.70;;;22.60;47.00;;;;;;5029680;28;20750;-85
2021/05/03 01:03:06;;;;;;;11.63;6.60;;;22.60;47.10;;;;;;5013821;28;20429;-85
2021/05/03 01:05:34;;;;;;;12.23;6.50;;;22.60;47.20;;;;;;5047437;28;20511;-85
2021/05/03 01:08:01;;;;;;;14.97;7.67;;;22.60;46.90;;;;;;5028641;28;20424;-85
2021/05/03 01:10:28;;;;;;;11.20;7.73;;;22.60;46.80;;;;;;5046168;28;20477;-86
2021/05/03 01:13:04;;;;;;;12.57;7.03;;;22.60;46.80;;;;;;5028926;28;20415;-86
2021/05/03 01:15:32;;;;;;;11.27;6.60;;;22.70;46.90;;;;;;5028415;28;20410;-87
2021/05/03 01:18:00;;;;;;;10.20;6.07;;;22.60;46.80;;;;;;5046307;28;20406;-87
2021/05/03 01:20:29;;;;;;;10.77;7.23;;;22.70;46.90;;;;;;5028493;28;20955;-88
2021/05/03 01:22:57;;;;;;;10.97;6.57;;;22.70;46.90;;;;;;5027448;28;20881;-87
2021/05/03 01:25:31;;;;;;;14.40;7.47;;;22.60;46.80;;;;;;5027162;28;20486;-88
2021/05/03 01:27:58;;;;;;;11.80;6.90;;;22.70;46.90;;;;;;5029175;28;20411;-88
2021/05/03 01:30:38;;;;;;;11.20;6.90;;;22.60;46.80;;;;;;5028759;28;20484;-87
2021/05/03 01:33:10;;;;;;;10.93;6.80;;;22.70;47.00;;;;;;5046113;28;20409;-87
2021/05/03 01:35:40;;;;;;;11.50;7.07;;;22.60;46.80;;;;;;5028247;28;20533;-87
2021/05/03 01:38:10;;;;;;;10.67;6.43;;;22.60;46.90;;;;;;5028542;28;20500;-87
2021/05/03 01:40:38;;;;;;;12.80;7.83;;;22.60;46.90;;;;;;5027219;28;20904;-86
2021/05/03 01:43:20;;;;;;;13.23;6.53;;;22.60;46.90;;;;;;5027315;28;20441;-88
2021/05/03 01:45:47;;;;;;;11.13;6.50;;;22.60;46.80;;;;;;5027373;28;20497;-88
2021/05/03 01:48:16;;;;;;;9.77;6.20;;;22.60;47.00;;;;;;5027481;28;20454;-88
2021/05/03 01:50:42;;;;;;;15.47;7.10;;;22.60;46.90;;;;;;5028053;28;20446;-85
2021/05/03 01:59:56;;;;;;;9.30;6.80;;;22.60;46.90;;;;;;5046683;28;20383;-86
2021/05/03 02:02:22;;;;;;;11.07;5.70;;;22.50;47.20;;;;;;5027478;28;20818;-85
2021/05/03 02:04:48;;;;;;;10.60;6.60;;;22.50;47.00;;;;;;5027575;28;20172;-85
2021/05/03 02:07:15;;;;;;;9.27;6.23;;;22.50;47.30;;;;;;5028014;28;20191;-86
2021/05/03 02:09:45;;;;;;;12.90;6.67;;;22.50;47.20;;;;;;5028107;28;20202;-86
2021/05/03 02:12:11;;;;;;;11.57;6.33;;;22.50;46.90;;;;;;5027352;28;20813;-86
2021/05/03 02:14:39;;;;;;;12.90;7.30;;;22.50;47.00;;;;;;5027343;28;20411;-86
2021/05/03 02:17:08;;;;;;;15.23;6.97;;;22.50;47.10;;;;;;5044991;28;20421;-85
2021/05/03 02:19:34;;;;;;;12.00;6.40;;;22.50;47.30;;;;;;5011389;28;20509;-86
2021/05/03 02:22:00;;;;;;;11.17;5.90;;;22.50;47.30;;;;;;5048479;28;20422;-86
2021/05/03 02:24:26;;;;;;;10.97;5.93;;;22.50;47.00;;;;;;5030622;28;20430;-86
2021/05/03 02:26:52;;;;;;;10.17;6.03;;;22.50;47.00;;;;;;5030263;28;20422;-86
2021/05/03 02:29:18;;;;;;;10.37;6.90;;;22.40;47.10;;;;;;5030243;28;20235;-86
2021/05/03 02:31:44;;;;;;;9.90;6.57;;;22.50;47.10;;;;;;5030456;28;20516;-85
2021/05/03 02:34:10;;;;;;;13.20;6.57;;;22.50;47.30;;;;;;5047157;28;20456;-86
2021/05/03 02:36:36;;;;;;;8.23;6.03;;;22.50;47.20;;;;;;5030388;28;20183;-86
2021/05/03 02:39:02;;;;;;;11.37;5.87;;;22.50;47.00;;;;;;5048049;28;20418;-86
2021/05/03 02:41:27;;;;;;;12.57;6.47;;;22.50;47.30;;;;;;5029661;28;20186;-86
2021/05/03 02:43:54;;;;;;;11.63;6.20;;;22.50;47.30;;;;;;5029485;28;20422;-85
2021/05/03 02:46:20;;;;;;;11.23;6.03;;;22.50;47.00;;;;;;5047726;28;20176;-86
2021/05/03 02:48:46;;;;;;;11.67;6.73;;;22.50;47.00;;;;;;5030439;28;20453;-86
2021/05/03 02:51:12;;;;;;;11.37;6.10;;;22.50;47.10;;;;;;5048341;28;20192;-86
2021/05/03 02:53:38;;;;;;;10.83;6.70;;;22.50;47.10;;;;;;5030719;28;20243;-86
2021/05/03 02:56:05;;;;;;;11.43;6.47;;;22.50;47.10;;;;;;5033355;28;20429;-88
2021/05/03 02:58:31;;;;;;;10.37;6.27;;;22.50;47.00;;;;;;5053283;28;20178;-87
2021/05/03 03:00:58;;;;;;;8.53;5.67;;;22.50;47.10;;;;;;5035902;28;20453;-87
2021/05/03 03:03:31;;;;;;;11.63;6.33;;;22.50;47.00;;;;;;5036296;28;20176;-87
2021/05/03 03:05:57;;;;;;;13.77;6.53;;;22.60;47.10;;;;;;5036311;28;20832;-86
2021/05/03 03:08:25;;;;;;;9.60;6.00;;;22.50;47.10;;;;;;5035316;28;20422;-86
2021/05/03 03:10:51;;;;;;;9.80;6.80;;;22.50;47.10;;;;;;5003211;28;20481;-87
2021/05/03 03:13:17;;;;;;;9.93;6.77;;;22.50;47.10;;;;;;5053189;28;20429;-87
2021/05/03 03:15:43;;;;;;;10.93;7.30;;;22.50;47.10;;;;;;5035362;28;20434;-87
2021/05/03 03:18:11;;;;;;;10.30;5.70;;;22.50;47.10;;;;;;5035455;28;20430;-87
2021/05/03 03:20:37;;;;;;;9.27;5.87;;;22.50;47.10;;;;;;5034955;28;20423;-87
2021/05/03 03:23:03;;;;;;;11.10;5.90;;;22.50;47.70;;;;;;5034546;28;20421;-87
2021/05/03 03:25:31;;;;;;;10.23;6.20;;;22.40;47.00;;;;;;5052280;28;20478;-87
2021/05/03 03:27:58;;;;;;;12.53;7.03;;;22.50;47.20;;;;;;5032478;28;20502;-85
2021/05/03 03:30:24;;;;;;;9.80;5.73;;;22.40;47.00;;;;;;5031271;28;20904;-85
2021/05/03 03:32:56;;;;;;;9.70;5.87;;;22.50;47.10;;;;;;5030727;28;20868;-85
2021/05/03 03:35:24;;;;;;;8.60;5.37;;;22.50;47.10;;;;;;5027759;28;20442;-84
2021/05/03 03:37:54;;;;;;;10.10;5.73;;;22.50;47.70;;;;;;5029303;28;20490;-85
2021/05/03 03:40:21;;;;;;;7.97;5.80;;;22.40;47.00;;;;;;4995181;28;20431;-84
2021/05/03 03:42:48;;;;;;;10.17;5.07;;;22.40;47.10;;;;;;5010945;28;20427;-85
2021/05/03 03:45:16;;;;;;;11.63;6.27;;;22.50;47.20;;;;;;5011054;28;20530;-85
2021/05/03 03:47:42;;;;;;;8.67;5.40;;;22.40;47.10;;;;;;5010753;28;20451;-85
2021/05/03 03:50:09;;;;;;;8.93;5.20;;;22.40;47.10;;;;;;5028413;28;20459;-85
2021/05/03 03:52:38;;;;;;;9.87;5.90;;;22.40;47.10;;;;;;5029372;28;20412;-85
2021/05/03 03:55:05;;;;;;;9.40;5.60;;;22.40;47.20;;;;;;5028076;28;20411;-85
2021/05/03 03:57:34;;;;;;;11.73;5.73;;;22.40;47.20;;;;;;5010917;28;20477;-85
2021/05/03 04:00:00;;;;;;;11.17;5.53;;;22.40;47.20;;;;;;4995719;28;20447;-85
2021/05/03 04:02:27;;;;;;;10.43;5.53;;;22.40;47.20;;;;;;5010061;28;20439;-87
2021/05/03 04:05:08;;;;;;;8.03;5.10;;;22.40;47.20;;;;;;5027035;28;20177;-87
2021/05/03 04:07:39;;;;;;;7.83;5.93;;;22.40;47.20;;;;;;5010709;28;20415;-88
2021/05/03 04:23:47;;;;;;;8.20;5.33;;;22.30;47.30;;;;;;5028915;28;20395;-87
2021/05/03 04:26:19;;;;;;;6.17;4.70;;;22.30;47.30;;;;;;5031224;28;20407;-88
2021/05/03 04:28:47;;;;;;;6.53;4.70;;;22.40;47.40;;;;;;5013944;28;20408;-87
2021/05/03 04:31:14;;;;;;;10.87;6.20;;;22.30;47.30;;;;;;5013228;28;20463;-87
2021/05/03 04:33:40;;;;;;;8.93;4.87;;;22.30;47.30;;;;;;5013742;28;20447;-87
2021/05/03 04:36:07;;;;;;;8.33;5.80;;;22.30;47.30;;;;;;5013420;28;20424;-87
2021/05/03 04:38:36;;;;;;;8.90;4.80;;;22.40;47.30;;;;;;5013699;28;20418;-87
2021/05/03 04:41:06;;;;;;;8.10;5.13;;;22.40;47.30;;;;;;5031101;28;20412;-88
2021/05/03 04:43:39;;;;;;;9.40;5.10;;;22.40;47.30;;;;;;5013776;28;20951;-87
2021/05/03 04:46:07;;;;;;;8.10;4.73;;;22.40;47.30;;;;;;5013838;28;20483;-87
2021/05/03 04:48:42;;;;;;;7.77;5.33;;;22.40;47.30;;;;;;5013332;28;20435;-89
2021/05/03 04:51:09;;;;;;;5.47;4.37;;;22.40;47.20;;;;;;5024694;28;20449;-87
2021/05/03 04:53:35;;;;;;;8.07;4.90;;;22.40;47.20;;;;;;5026806;28;20403;-87
2021/05/03 04:56:04;;;;;;;5.43;4.23;;;22.40;47.10;;;;;;5027341;28;20433;-87
2021/05/03 04:58:30;;;;;;;4.87;4.40;;;22.40;46.60;;;;;;5030577;28;20553;-88
2021/05/03 05:00:58;;;;;;;5.30;3.93;;;22.40;46.30;;;;;;5012522;28;20415;-87
2021/05/03 05:03:24;;;;;;;5.57;3.60;;;22.40;46.00;;;;;;5029635;28;20415;-87
2021/05/03 05:05:52;;;;;;;4.27;3.70;;;22.40;46.00;;;;;;5031025;28;20426;-87
2021/05/03 05:08:19;;;;;;;7.60;4.43;;;22.40;45.90;;;;;;5013055;28;20419;-87
2021/05/03 05:10:46;;;;;;;6.30;4.30;;;22.40;46.00;;;;;;5011127;28;20463;-88
2021/05/03 05:13:14;;;;;;;7.30;4.03;;;22.40;46.10;;;;;;5013085;28;20522;-87
2021/05/03 05:15:40;;;;;;;4.57;3.60;;;22.40;46.20;;;;;;5014539;28;20418;-86
2021/05/03 05:18:08;;;;;;;7.17;4.10;;;22.40;46.10;;;;;;5013524;28;20419;-87
2021/05/03 05:20:35;;;;;;;5.13;3.70;;;22.40;46.70;;;;;;5031196;28;20408;-87
2021/05/03 05:23:04;;;;;;;8.00;4.70;;;22.40;46.20;;;;;;5012659;28;20427;-87
2021/05/03 05:25:30;;;;;;;6.57;4.33;;;22.40;46.20;;;;;;5012996;28;20414;-87
2021/05/03 05:27:55;;;;;;;7.30;4.17;;;22.40;46.20;;;;;;5012974;28;20412;-87
2021/05/03 05:30:39;;;;;;;;;;;;;;;;;;;;;
2021/05/03 05:33:05;;;;;;;6.90;4.50;;;22.40;46.30;;;;;;5031174;28;20204;-86
2021/05/03 05:35:31;;;;;;;6.07;4.60;;;22.40;46.40;;;;;;5011339;28;20434;-86
2021/05/03 05:37:57;;;;;;;4.30;3.67;;;22.40;46.40;;;;;;5028724;28;20406;-84
2021/05/03 05:40:23;;;;;;;6.27;4.53;;;22.40;47.00;;;;;;5010739;28;20184;-86
2021/05/03 05:42:49;;;;;;;5.23;3.57;;;22.40;46.50;;;;;;5029083;28;20172;-86
2021/05/03 05:45:16;;;;;;;4.50;3.30;;;22.50;46.60;;;;;;5011332;28;20415;-86
2021/05/03 05:47:42;;;;;;;5.13;4.07;;;22.50;46.60;;;;;;5029720;28;20192;-85
2021/05/03 05:50:08;;;;;;;7.23;4.33;;;22.50;46.60;;;;;;5030474;28;20461;-86
2021/05/03 05:52:42;;;;;;;4.10;3.07;;;22.50;46.60;;;;;;5026297;28;20956;-86
2021/05/03 05:55:11;;;;;;;4.77;3.70;;;22.50;46.60;;;;;;5028344;28;20391;-85
2021/05/03 05:57:36;;;;;;;5.87;3.97;;;22.50;46.60;;;;;;5032530;28;20409;-86
2021/05/03 06:00:03;;;;;;;4.10;3.30;;;22.50;46.60;;;;;;5014360;28;20447;-86
2021/05/03 06:02:29;;;;;;;4.80;4.03;;;22.50;46.60;;;;;;5013194;28;20176;-86
2021/05/03 06:04:55;;;;;;;4.03;2.97;;;22.50;46.60;;;;;;5029626;28;20625;-86
2021/05/03 06:07:26;;;;;;;7.50;3.70;;;22.50;46.60;;;;;;5013992;28;20454;-85
2021/05/03 06:09:55;;;;;;;6.57;3.90;;;22.60;46.70;;;;;;5014610;28;20635;-85
2021/05/03 06:12:20;;;;;;;4.70;3.10;;;22.60;46.70;;;;;;5028786;28;20940;-84
2021/05/03 06:14:46;;;;;;;5.80;3.70;;;22.60;46.70;;;;;;5012457;28;20411;-85
2021/05/03 06:17:15;;;;;;;5.90;4.00;;;22.60;46.70;;;;;;5011434;28;20188;-85
2021/05/03 06:19:41;;;;;;;6.33;4.30;;;22.70;46.80;;;;;;5027511;28;20177;-86
2021/05/03 06:22:08;;;;;;;3.87;3.20;;;22.70;46.70;;;;;;5027389;28;20415;-86
2021/05/03 06:24:33;;;;;;;9.07;3.90;;;22.80;46.70;;;;;;5028229;28;20752;-86
2021/05/03 06:26:59;;;;;;;4.80;3.90;;;22.80;46.70;;;;;;5009472;28;20470;-86
2021/05/03 06:29:25;;;;;;;7.10;4.20;;;22.80;46.60;;;;;;5027773;28;20631;-86
2021/05/03 06:31:53;;;;;;;9.30;3.70;;;22.80;46.60;;;;;;5027634;28;20203;-86
2021/05/03 06:34:18;;;;;;;5.90;3.57;;;22.80;46.60;;;;;;5011022;28;20177;-86
2021/05/03 06:36:44;;;;;;;6.97;3.50;;;22.90;46.70;;;;;;5029808;28;20522;-87
2021/05/03 06:39:10;;;;;;;6.57;3.97;;;22.90;46.60;;;;;;5031189;28;20168;-87
2021/05/03 06:41:36;;;;;;;5.07;3.20;;;22.90;46.60;;;;;;5013960;28;20519;-87
2021/05/03 06:44:04;;;;;;;6.00;3.20;;;22.90;46.60;;;;;;5031155;28;20176;-86
2021/05/03 06:46:33;;;;;;;6.97;3.97;;;23.00;46.70;;;;;;5030840;28;20176;-87
2021/05/03 06:49:00;;;;;;;4.80;3.23;;;23.00;46.70;;;;;;5012384;28;20542;-87
2021/05/03 06:51:26;;;;;;;5.43;3.53;;;23.00;46.70;;;;;;5013953;28;20461;-87
2021/05/03 06:53:59;;;;;;;6.77;3.90;;;22.90;46.60;;;;;;5012916;28;20415;-86
2021/05/03 06:56:25;;;;;;;5.87;3.20;;;23.00;46.70;;;;;;5013671;28;20395;-86
2021/05/03 06:58:51;;;;;;;4.93;3.33;;;23.00;46.70;;;;;;5031419;28;20404;-87
2021/05/03 07:01:18;;;;;;;3.80;3.40;;;23.10;46.80;;;;;;5027764;28;20462;-87
2021/05/03 07:03:44;;;;;;;5.20;3.07;;;23.10;46.80;;;;;;5010965;28;20194;-87
2021/05/03 07:06:11;;;;;;;4.17;3.10;;;23.10;46.80;;;;;;5014552;28;20451;-87
2021/05/03 07:08:41;;;;;;;5.60;3.83;;;23.10;46.90;;;;;;5022144;28;20196;-87
2021/05/03 07:11:15;;;;;;;5.40;3.30;;;23.20;46.80;;;;;;5034324;28;20439;-87
2021/05/03 07:13:48;;;;;;;3.53;3.10;;;23.20;46.90;;;;;;5017315;28;20408;-87
2021/05/03 07:16:17;;;;;;;4.13;2.90;;;23.20;46.80;;;;;;5036210;28;20397;-86
2021/05/03 07:18:45;;;;;;;5.83;4.03;;;23.20;46.80;;;;;;5016438;28;20419;-87
2021/05/03 07:21:13;;;;;;;7.00;4.07;;;23.20;46.80;;;;;;5014606;28;20450;-87
2021/05/03 07:23:41;;;;;;;5.17;2.93;;;23.20;46.90;;;;;;5015048;28;20411;-88
2021/05/03 07:26:19;;;;;;;5.20;3.23;;;23.20;46.80;;;;;;5016238;28;20411;-88
2021/05/03 07:28:50;;;;;;;5.27;3.30;;;23.20;46.90;;;;;;5031900;28;20406;-87
2021/05/03 07:31:16;;;;;;;4.43;3.00;;;23.20;46.90;;;;;;5013909;28;20473;-86
2021/05/03 07:33:53;;;;;;;5.00;3.00;;;23.20;46.90;;;;;;5013376;28;20442;-87
2021/05/03 07:36:27;;;;;;;3.20;2.70;;;23.30;46.90;;;;;;5013960;28;20422;-87
2021/05/03 07:39:15;;;;;;;4.10;2.73;;;23.30;47.00;;;;;;5014374;28;20430;-87
2021/05/03 07:41:50;;;;;;;6.00;3.67;;;23.30;47.00;;;;;;4932084;29;20427;-87
2021/05/03 07:44:29;;;;;;;6.17;3.20;;;23.40;47.00;;;;;;4931425;29;20435;-88
2021/05/03 07:47:04;;;;;;;3.77;2.97;;;23.30;47.00;;;;;;4932122;29;20468;-88
2021/05/03 07:49:39;;;;;;;6.90;4.03;;;23.30;47.00;;;;;;4951075;29;21011;-88
2021/05/03 07:52:17;;;;;;;4.73;2.97;;;23.30;47.00;;;;;;4951205;29;20451;-86
2021/05/03 07:54:43;;;;;;;3.87;2.80;;;23.30;47.00;;;;;;4933635;29;20458;-86
2021/05/03 07:57:16;;;;;;;3.70;3.10;;;23.30;47.00;;;;;;4933578;29;20427;-85
2021/05/03 07:59:44;;;;;;;3.10;2.50;;;23.30;46.90;;;;;;4949197;29;20179;-86
2021/05/03 08:02:10;;;;;;;3.97;3.07;;;23.30;47.00;;;;;;4949711;29;20418;-86
2021/05/03 08:04:39;;;;;;;5.50;3.00;;;23.30;46.90;;;;;;4933637;29;20428;-86
2021/05/03 08:07:15;;;;;;;4.43;3.00;;;23.30;47.00;;;;;;4948860;29;20450;-86
2021/05/03 08:09:51;;;;;;;4.67;2.80;;;23.30;46.90;;;;;;4933000;29;20422;-86
2021/05/03 08:12:20;;;;;;;6.60;3.10;;;23.30;47.00;;;;;;4972254;28;20548;-86
2021/05/03 08:14:50;;;;;;;3.23;2.60;;;23.30;47.00;;;;;;5028111;28;20491;-85
2021/05/03 08:17:22;;;;;;;4.53;3.00;;;23.30;46.90;;;;;;5010729;28;20407;-86
2021/05/03 08:19:50;;;;;;;4.43;3.17;;;23.30;47.00;;;;;;5010454;28;20416;-84
2021/05/03 08:22:24;;;;;;;3.33;2.13;;;23.30;47.00;;;;;;5010852;28;20422;-86
2021/05/03 08:24:50;;;;;;;5.87;2.50;;;23.30;47.00;;;;;;5033256;28;20422;-86
2021/05/03 08:27:16;;;;;;;4.20;2.83;;;23.30;46.90;;;;;;5026592;28;20422;-84
2021/05/03 08:29:56;;;;;;;;;;;;;;;;;;;;;
2021/05/03 08:32:29;;;;;;;3.20;2.50;;;23.30;47.00;;;;;;5032702;28;20247;-86
2021/05/03 08:34:58;;;;;;;3.90;2.57;;;23.30;47.00;;;;;;5031180;28;20399;-85
2021/05/03 08:37:27;;;;;;;2.80;2.40;;;23.30;47.00;;;;;;5031954;28;20422;-85
2021/05/03 08:39:53;;;;;;;5.60;2.90;;;23.30;47.00;;;;;;5048576;28;20478;-85
2021/05/03 08:42:22;;;;;;;3.50;2.43;;;23.30;47.00;;;;;;5049045;28;20425;-85
2021/05/03 08:44:52;;;;;;;3.80;2.60;;;23.30;47.00;;;;;;5031328;28;20426;-85
2021/05/03 08:47:38;;;;;;;3.10;2.60;;;23.30;47.00;;;;;;5030184;28;20454;-86
2021/05/03 08:50:18;;;;;;;3.50;2.63;;;23.30;47.00;;;;;;5030096;28;20445;-87
2021/05/03 08:52:47;;;;;;;4.03;2.80;;;23.40;47.00;;;;;;5047439;28;20422;-86
2021/05/03 08:55:14;;;;;;;3.50;2.10;;;23.30;47.60;;;;;;5046951;28;20473;-87
2021/05/03 08:57:45;;;;;;;3.07;2.73;;;23.30;47.00;;;;;;5013724;28;20419;-87
2021/05/03 09:00:15;;;;;;;4.17;2.97;;;23.30;47.00;;;;;;5047057;28;20466;-86
2021/05/03 09:02:46;;;;;;;3.23;2.50;;;23.30;47.00;;;;;;5028985;28;20414;-89
2021/05/03 09:05:13;;;;;;;3.60;2.80;;;23.40;47.60;;;;;;5026769;28;20449;-88
2021/05/03 09:08:05;;;;;;;2.90;2.40;;;23.30;47.00;;;;;;5025802;28;20418;-88
2021/05/03 09:10:32;;;;;;;3.90;2.27;;;23.40;47.10;;;;;;5030888;28;20526;-86
2021/05/03 09:13:12;;;;;;;3.27;2.57;;;23.30;47.00;;;;;;5047739;28;20425;-88
2021/05/03 09:15:38;;;;;;;3.83;3.00;;;23.40;47.10;;;;;;5032555;28;20486;-89
2021/05/03 09:18:07;;;;;;;2.60;2.30;;;23.30;47.00;;;;;;5026977;28;20422;-86
2021/05/03 09:20:33;;;;;;;4.70;2.60;;;23.40;47.10;;;;;;5029302;28;20418;-89
2021/05/03 09:23:16;;;;;;;3.57;2.43;;;23.40;47.10;;;;;;5032409;28;20414;-88
2021/05/03 09:25:51;;;;;;;5.30;2.53;;;23.40;47.10;;;;;;5051133;28;20422;-88
2021/05/03 09:28:37;;;;;;;4.43;2.67;;;23.40;47.10;;;;;;5015398;28;20418;-88
2021/05/03 09:31:06;;;;;;;4.70;3.13;;;23.40;47.10;;;;;;5029596;28;20496;-88
2021/05/03 09:33:38;;;;;;;3.57;2.30;;;23.40;47.10;;;;;;5030880;28;20425;-88
2021/05/03 09:36:14;;;;;;;3.60;2.13;;;23.40;47.10;;;;;;5030713;28;20418;-88
2021/05/03 09:38:42;;;;;;;5.30;2.40;;;23.40;47.10;;;;;;5031047;28;20425;-87
2021/05/03 09:41:46;;;;;;;4.00;2.10;;;23.40;47.10;;;;;;5027999;28;20433;-89
2021/05/03 09:45:06;;;;;;;3.00;2.30;;;23.40;47.10;;;;;;5021714;28;20430;-88
2021/05/03 09:47:36;;;;;;;3.47;2.30;;;23.40;47.20;;;;;;5029313;28;20502;-86
2021/05/03 09:50:15;;;;;;;6.70;2.93;;;23.40;47.30;;;;;;5027815;28;20434;-86
2021/05/03 09:53:13;;;;;;;4.20;2.60;;;23.40;47.20;;;;;;5027754;28;20410;-87
2021/05/03 09:55:53;;;;;;;5.10;2.47;;;23.40;47.20;;;;;;5026501;28;20415;-86
2021/05/03 09:58:24;;;;;;;2.87;2.00;;;23.40;47.20;;;;;;5027897;28;20437;-86
2021/05/03 10:00:54;;;;;;;2.90;2.27;;;23.40;47.20;;;;;;5046907;28;20410;-86
2021/05/03 10:03:48;;;;;;;4.17;2.60;;;23.40;47.20;;;;;;5030095;28;20932;-87
2021/05/03 10:06:18;;;;;;;3.97;2.60;;;23.40;47.20;;;;;;5048270;28;20395;-87
2021/05/03 10:08:50;;;;;;;4.30;2.20;;;23.40;47.20;;;;;;5031581;28;20449;-87
2021/05/03 10:11:17;;;;;;;4.83;2.60;;;23.40;47.20;;;;;;5048181;28;20458;-87
2021/05/03 10:13:51;;;;;;;4.30;2.23;;;23.40;47.20;;;;;;5046513;28;20414;-86
2021/05/03 10:16:18;;;;;;;4.07;2.70;;;23.50;47.20;;;;;;5044757;28;20399;-86
2021/05/03 10:18:46;;;;;;;3.57;2.20;;;23.50;47.20;;;;;;5044758;28;20415;-88
2021/05/03 10:21:13;;;;;;;2.37;2.07;;;23.50;47.20;;;;;;5027267;28;20425;-87
2021/05/03 10:23:42;;;;;;;3.10;2.30;;;23.50;47.20;;;;;;5045187;28;20429;-86
2021/05/03 10:26:13;;;;;;;3.00;2.00;;;23.50;47.20;;;;;;5043353;28;20437;-85
2021/05/03 10:28:55;;;;;;;5.43;2.10;;;23.50;47.20;;;;;;5043628;28;20444;-86
2021/05/03 10:31:24;;;;;;;4.80;2.23;;;23.50;47.20;;;;;;5042636;28;20508;-87
2021/05/03 10:33:52;;;;;;;3.17;2.33;;;23.50;47.20;;;;;;5043527;28;20418;-87
2021/05/03 10:36:40;;;;;;;2.90;2.17;;;23.50;47.20;;;;;;5043040;28;20418;-88
2021/05/03 10:39:24;;;;;;;3.73;2.37;;;23.60;47.30;;;;;;5043321;28;20410;-89
2021/05/03 10:42:04;;;;;;;2.53;2.30;;;23.60;47.30;;;;;;5043898;28;20410;-89
2021/05/03 10:44:34;;;;;;;2.90;2.20;;;23.70;47.30;;;;;;5045485;28;20441;-87
2021/05/03 10:47:06;;;;;;;5.83;2.50;;;23.50;47.20;;;;;;5046547;28;20473;-87
2021/05/03 10:49:48;;;;;;;3.00;1.60;;;23.60;47.30;;;;;;5046256;28;20497;-86
2021/05/03 10:52:19;;;;;;;4.43;1.80;;;23.60;47.20;;;;;;5044716;28;20446;-88
2021/05/03 10:54:52;;;;;;;3.13;1.83;;;23.60;47.30;;;;;;5045480;28;20394;-89
2021/05/03 10:57:38;;;;;;;3.13;2.23;;;23.60;47.20;;;;;;5044487;28;20415;-90
2021/05/03 11:00:27;;;;;;;4.13;2.07;;;23.60;47.20;;;;;;4970303;28;20421;-87
2021/05/03 11:03:02;;;;;;;2.97;1.73;;;23.60;47.20;;;;;;4971348;28;20437;-87
2021/05/03 11:08:20;;;;;;;2.13;1.80;;;23.60;47.20;;;;;;4987161;28;20420;-88
2021/05/03 11:10:59;;;;;;;3.37;2.33;;;23.60;47.20;;;;;;4968606;28;20475;-85
2021/05/03 11:13:40;;;;;;;3.13;2.20;;;23.60;47.20;;;;;;4991571;28;20419;-85
2021/05/03 11:17:09;;;;;;;6.17;2.50;;;23.60;47.20;;;;;;4975584;28;21056;-84
2021/05/03 11:20:06;;;;;;;3.60;2.20;;;23.60;47.20;;;;;;4927067;29;20435;-86
2021/05/03 11:22:48;;;;;;;4.10;2.37;;;23.60;47.20;;;;;;4969874;28;20512;-88
2021/05/03 11:25:27;;;;;;;2.63;1.83;;;23.60;47.20;;;;;;4989462;28;20420;-89
2021/05/03 11:28:15;;;;;;;3.73;1.90;;;23.50;47.10;;;;;;4988311;28;20393;-86
2021/05/03 11:31:00;;;;;;;2.57;2.00;;;23.60;47.20;;;;;;4989928;28;20488;-85
2021/05/03 11:33:42;;;;;;;2.43;1.90;;;23.50;47.20;;;;;;4973652;28;20428;-86
2021/05/03 11:36:22;;;;;;;2.60;1.83;;;23.50;47.20;;;;;;4979459;28;20412;-86
2021/05/03 11:39:11;;;;;;;3.40;2.17;;;23.50;47.20;;;;;;5048927;28;20405;-86
2021/05/03 11:44:30;;;;;;;2.77;1.60;;;23.40;47.00;;;;;;5050132;28;20425;-86
2021/05/03 11:47:18;;;;;;;5.47;1.80;;;23.40;47.10;;;;;;5049222;28;20414;-86
2021/05/03 11:49:45;;;;;;;5.00;3.00;;;23.40;47.00;;;;;;5047758;28;20446;-84
2021/05/03 11:52:26;;;;;;;2.70;1.90;;;23.40;47.10;;;;;;5049420;28;20459;-87
2021/05/03 11:54:54;;;;;;;1.97;1.77;;;23.40;47.10;;;;;;5050113;28;20436;-86
2021/05/03 11:57:24;;;;;;;2.70;1.80;;;23.40;47.10;;;;;;5048716;28;20425;-86
2021/05/03 12:00:01;;;;;;;4.10;2.03;;;23.30;47.00;;;;;;5047649;28;20418;-90
2021/05/03 12:02:56;;;;;;;3.33;2.10;;;23.30;47.00;;;;;;5048348;28;20440;-89
2021/05/03 12:05:42;;;;;;;;;;;;;;;;;;;;;
2021/05/03 12:08:18;;;;;;;2.70;2.10;;;23.30;47.20;;;;;;5048254;28;20422;-87
2021/05/03 12:10:44;;;;;;;3.80;2.10;;;23.30;47.20;;;;;;5051813;28;20446;-89
2021/05/03 12:13:20;;;;;;;3.20;2.97;;;23.20;47.20;;;;;;5046369;28;20490;-88
2021/05/03 12:15:49;;;;;;;3.23;2.93;;;23.30;47.20;;;;;;5046734;28;20406;-89
2021/05/03 12:18:19;;;;;;;6.10;4.07;;;23.20;47.20;;;;;;5044985;28;20417;-90
2021/05/03 12:20:45;;;;;;;4.87;4.27;;;23.30;47.30;;;;;;5044848;28;20482;-90
2021/05/03 12:23:13;;;;;;;5.20;3.90;;;23.20;47.20;;;;;;5047762;28;20448;-87
2021/05/03 12:25:55;;;;;;;6.03;5.40;;;23.20;47.30;;;;;;5046192;28;20445;-87
2021/05/03 12:28:35;;;;;;;5.30;4.40;;;23.20;47.20;;;;;;5046367;28;20415;-88
2021/05/03 12:31:04;;;;;;;4.50;3.80;;;23.20;47.30;;;;;;5045377;28;20477;-87
2021/05/03 12:33:39;;;;;;;6.07;5.47;;;23.20;47.30;;;;;;5044025;28;20425;-87
2021/05/03 12:36:12;;;;;;;6.77;6.10;;;23.20;47.30;;;;;;5045605;28;20406;-87
2021/05/03 12:38:42;;;;;;;6.60;5.30;;;23.20;47.30;;;;;;5045492;28;20498;-90
2021/05/03 13:24:49;;;;;;;8.17;5.57;;;23.00;47.50;;;;;;5043827;28;20390;-90
2021/05/03 13:30:25;;;;;;;6.60;5.67;;;23.00;47.50;;;;;;5044660;28;20494;-89
2021/05/03 13:32:52;;;;;;;5.90;5.40;;;23.00;47.50;;;;;;5042230;28;20418;-89
2021/05/03 13:35:22;;;;;;;6.70;6.03;;;23.00;47.60;;;;;;5043443;28;20421;-89
2021/05/03 13:37:49;;;;;;;7.70;5.53;;;23.00;47.60;;;;;;5045424;28;20942;-88
2021/05/03 13:40:16;;;;;;;8.17;5.40;;;23.00;47.60;;;;;;5045872;28;20421;-90
2021/05/03 13:42:51;;;;;;;6.93;5.97;;;23.00;47.60;;;;;;5043581;28;20414;-90
2021/05/03 13:45:27;;;;;;;7.33;5.70;;;23.00;47.50;;;;;;5044416;28;20431;-89
2021/05/03 13:47:53;;;;;;;6.60;5.90;;;23.00;47.50;;;;;;5047075;28;20413;-89
2021/05/03 13:50:22;;;;;;;6.47;5.20;;;23.00;47.60;;;;;;5044104;28;20777;-89
2021/05/03 13:52:49;;;;;;;6.63;5.90;;;23.00;47.50;;;;;;5045023;28;20717;-90
2021/05/03 13:55:15;;;;;;;6.50;5.87;;;23.00;47.60;;;;;;5044490;28;20486;-90
2021/05/03 13:57:44;;;;;;;5.80;5.30;;;23.00;47.60;;;;;;5043390;28;20406;-90
2021/05/03 14:00:11;;;;;;;6.57;5.57;;;23.00;47.60;;;;;;5026429;28;20585;-89
2021/05/03 14:02:40;;;;;;;5.10;4.70;;;23.00;47.60;;;;;;5045328;28;20414;-86
2021/05/03 14:05:08;;;;;;;6.30;5.70;;;23.00;47.50;;;;;;5045384;28;20447;-86
2021/05/03 14:07:43;;;;;;;5.40;4.97;;;23.00;47.60;;;;;;5046286;28;20407;-87
2021/05/03 14:10:12;;;;;;;5.03;4.63;;;22.90;47.50;;;;;;5029496;28;20425;-86
2021/05/03 14:12:42;;;;;;;6.43;5.53;;;23.00;47.60;;;;;;5046543;28;20430;-86
2021/05/03 14:15:24;;;;;;;5.20;4.67;;;22.90;47.50;;;;;;5015169;28;20433;-87
2021/05/03 14:18:01;;;;;;;5.77;5.23;;;23.00;47.60;;;;;;5052475;28;20399;-87
2021/05/03 14:20:28;;;;;;;6.50;5.50;;;23.00;47.60;;;;;;5050168;28;20410;-87